sensor_id;sensor_type;location;lat;lon;timestamp;temperature;humidity
8002;DHT22;4046;48.774;8.732;2022-07-30T00:00:28;19.20;99.90
8002;DHT22;4046;48.774;8.732;2022-07-30T00:02:53;18.90;99.90
8002;DHT22;4046;48.774;8.732;2022-07-30T00:05:19;19.00;99.90
8002;DHT22;4046;48.774;8.732;2022-07-30T00:07:45;19.10;99.90
8002;DHT22;4046;48.774;8.732;2022-07-30T00:10:11;18.90;99.90
8002;DHT22;4046;48.774;8.732;2022-07-30T00:12:37;19.10;99.90
8002;DHT22;4046;48.774;8.732;2022-07-30T00:15:04;19.20;99.90
8002;DHT22;4046;48.774;8.732;2022-07-30T00:17:30;19.20;99.90
8002;DHT22;4046;48.774;8.732;2022-07-30T00:19:56;19.10;99.90
8002;DHT22;4046;48.774;8.732;2022-07-30T00:22:21;19.10;99.90
8002;DHT22;4046;48.774;8.732;2022-07-30T00:24:47;19.20;99.90
8002;DHT22;4046;48.774;8.732;2022-07-30T00:27:13;19.20;99.90
8002;DHT22;4046;48.774;8.732;2022-07-30T00:29:39;19.20;99.90
8002;DHT22;4046;48.774;8.732;2022-07-30T00:32:05;19.20;99.90
8002;DHT22;4046;48.774;8.732;2022-07-30T00:34:31;19.30;99.90
8002;DHT22;4046;48.774;8.732;2022-07-30T00:36:56;19.20;99.90
8002;DHT22;4046;48.774;8.732;2022-07-30T00:39:22;19.20;99.90
8002;DHT22;4046;48.774;8.732;2022-07-30T00:41:52;19.00;99.90
8002;DHT22;4046;48.774;8.732;2022-07-30T00:44:18;19.00;99.90
8002;DHT22;4046;48.774;8.732;2022-07-30T00:46:44;19.00;99.90
8002;DHT22;4046;48.774;8.732;2022-07-30T00:49:10;19.20;99.90
8002;DHT22;4046;48.774;8.732;2022-07-30T00:51:35;19.30;99.90
8002;DHT22;4046;48.774;8.732;2022-07-30T00:54:01;19.30;99.90
8002;DHT22;4046;48.774;8.732;2022-07-30T00:56:27;19.10;99.90
8002;DHT22;4046;48.774;8.732;2022-07-30T00:58:53;19.00;99.90
8002;DHT22;4046;48.774;8.732;2022-07-30T01:01:18;18.90;99.90
8002;DHT22;4046;48.774;8.732;2022-07-30T01:03:45;19.00;99.90
8002;DHT22;4046;48.774;8.732;2022-07-30T01:06:11;19.00;99.90
8002;DHT22;4046;48.774;8.732;2022-07-30T01:08:36;19.10;99.90
8002;DHT22;4046;48.774;8.732;2022-07-30T01:11:02;19.00;99.90
8002;DHT22;4046;48.774;8.732;2022-07-30T01:13:28;18.90;99.90
8002;DHT22;4046;48.774;8.732;2022-07-30T01:15:54;18.80;99.90
8002;DHT22;4046;48.774;8.732;2022-07-30T01:18:21;18.60;99.90
8002;DHT22;4046;48.774;8.732;2022-07-30T01:20:56;18.50;99.90
8002;DHT22;4046;48.774;8.732;2022-07-30T01:23:31;18.50;99.90
8002;DHT22;4046;48.774;8.732;2022-07-30T01:26:07;18.20;99.90
8002;DHT22;4046;48.774;8.732;2022-07-30T01:28:40;18.10;99.90
8002;DHT22;4046;48.774;8.732;2022-07-30T01:31:07;17.90;99.90
8002;DHT22;4046;48.774;8.732;2022-07-30T01:33:38;17.90;99.90
8002;DHT22;4046;48.774;8.732;2022-07-30T01:36:07;17.90;99.90
8002;DHT22;4046;48.774;8.732;2022-07-30T01:38:36;18.10;99.90
8002;DHT22;4046;48.774;8.732;2022-07-30T01:41:04;18.00;99.90
8002;DHT22;4046;48.774;8.732;2022-07-30T01:43:33;18.10;99.90
8002;DHT22;4046;48.774;8.732;2022-07-30T01:46:01;18.00;99.90
8002;DHT22;4046;48.774;8.732;2022-07-30T01:48:28;18.00;99.90
8002;DHT22;4046;48.774;8.732;2022-07-30T01:50:57;17.90;99.90
8002;DHT22;4046;48.774;8.732;2022-07-30T01:53:26;18.00;99.90
8002;DHT22;4046;48.774;8.732;2022-07-30T01:55:55;17.90;99.90
8002;DHT22;4046;48.774;8.732;2022-07-30T01:58:25;17.60;99.90
8002;DHT22;4046;48.774;8.732;2022-07-30T02:00:54;17.60;99.90
8002;DHT22;4046;48.774;8.732;2022-07-30T02:03:22;17.80;99.90
8002;DHT22;4046;48.774;8.732;2022-07-30T02:05:56;17.70;99.90
8002;DHT22;4046;48.774;8.732;2022-07-30T02:08:34;17.50;99.90
8002;DHT22;4046;48.774;8.732;2022-07-30T02:11:05;17.30;99.90
8002;DHT22;4046;48.774;8.732;2022-07-30T02:13:33;17.30;99.90
8002;DHT22;4046;48.774;8.732;2022-07-30T02:16:12;17.20;99.90
8002;DHT22;4046;48.774;8.732;2022-07-30T02:21:08;17.10;99.90
8002;DHT22;4046;48.774;8.732;2022-07-30T02:23:38;17.10;99.90
8002;DHT22;4046;48.774;8.732;2022-07-30T02:26:06;17.10;99.90
8002;DHT22;4046;48.774;8.732;2022-07-30T02:28:37;17.20;99.90
8002;DHT22;4046;48.774;8.732;2022-07-30T02:31:04;17.90;99.90
8002;DHT22;4046;48.774;8.732;2022-07-30T02:33:40;16.80;99.90
8002;DHT22;4046;48.774;8.732;2022-07-30T02:36:08;16.30;99.90
8002;DHT22;4046;48.774;8.732;2022-07-30T02:38:36;16.20;99.90
8002;DHT22;4046;48.774;8.732;2022-07-30T02:41:03;16.30;99.90
8002;DHT22;4046;48.774;8.732;2022-07-30T02:43:30;16.30;99.90
8002;DHT22;4046;48.774;8.732;2022-07-30T02:45:58;16.50;99.90
8002;DHT22;4046;48.774;8.732;2022-07-30T02:48:26;16.60;99.90
8002;DHT22;4046;48.774;8.732;2022-07-30T02:50:53;16.60;99.90
8002;DHT22;4046;48.774;8.732;2022-07-30T02:53:19;16.60;99.90
8002;DHT22;4046;48.774;8.732;2022-07-30T02:55:47;16.30;99.90
8002;DHT22;4046;48.774;8.732;2022-07-30T02:58:18;16.10;99.90
8002;DHT22;4046;48.774;8.732;2022-07-30T03:00:45;16.10;99.90
8002;DHT22;4046;48.774;8.732;2022-07-30T03:03:12;15.90;99.90
8002;DHT22;4046;48.774;8.732;2022-07-30T03:05:40;15.80;99.90
8002;DHT22;4046;48.774;8.732;2022-07-30T03:08:06;15.60;99.90
8002;DHT22;4046;48.774;8.732;2022-07-30T03:10:33;15.60;99.90
8002;DHT22;4046;48.774;8.732;2022-07-30T03:13:01;15.80;99.90
8002;DHT22;4046;48.774;8.732;2022-07-30T03:15:29;16.10;99.90
8002;DHT22;4046;48.774;8.732;2022-07-30T03:17:59;16.40;99.90
8002;DHT22;4046;48.774;8.732;2022-07-30T03:20:29;16.20;99.90
8002;DHT22;4046;48.774;8.732;2022-07-30T03:22:58;16.20;99.90
8002;DHT22;4046;48.774;8.732;2022-07-30T03:25:26;16.40;99.90
8002;DHT22;4046;48.774;8.732;2022-07-30T03:27:54;16.50;99.90
8002;DHT22;4046;48.774;8.732;2022-07-30T03:30:22;16.60;99.90
8002;DHT22;4046;48.774;8.732;2022-07-30T03:32:49;16.60;99.90
8002;DHT22;4046;48.774;8.732;2022-07-30T03:35:16;16.70;99.90
8002;DHT22;4046;48.774;8.732;2022-07-30T03:37:43;16.70;99.90
8002;DHT22;4046;48.774;8.732;2022-07-30T03:40:09;16.70;99.90
8002;DHT22;4046;48.774;8.732;2022-07-30T03:42:36;16.60;99.90
8002;DHT22;4046;48.774;8.732;2022-07-30T03:45:04;16.70;99.90
8002;DHT22;4046;48.774;8.732;2022-07-30T03:47:32;16.60;99.90
8002;DHT22;4046;48.774;8.732;2022-07-30T03:50:00;16.70;99.90
8002;DHT22;4046;48.774;8.732;2022-07-30T03:52:27;16.60;99.90
8002;DHT22;4046;48.774;8.732;2022-07-30T03:54:53;16.50;99.90
8002;DHT22;4046;48.774;8.732;2022-07-30T03:57:19;16.70;99.90
8002;DHT22;4046;48.774;8.732;2022-07-30T03:59:45;16.80;99.90
8002;DHT22;4046;48.774;8.732;2022-07-30T04:02:11;16.90;99.90
8002;DHT22;4046;48.774;8.732;2022-07-30T04:04:42;17.10;99.90
8002;DHT22;4046;48.774;8.732;2022-07-30T04:07:08;16.50;99.90
8002;DHT22;4046;48.774;8.732;2022-07-30T04:09:34;16.40;99.90
8002;DHT22;4046;48.774;8.732;2022-07-30T04:12:00;16.00;99.90
8002;DHT22;4046;48.774;8.732;2022-07-30T04:14:26;16.10;99.90
8002;DHT22;4046;48.774;8.732;2022-07-30T04:16:58;16.10;99.90
8002;DHT22;4046;48.774;8.732;2022-07-30T04:19:34;16.20;99.90
8002;DHT22;4046;48.774;8.732;2022-07-30T04:22:02;16.40;99.90
8002;DHT22;4046;48.774;8.732;2022-07-30T04:24:30;16.20;99.90
8002;DHT22;4046;48.774;8.732;2022-07-30T04:26:58;16.00;99.90
8002;DHT22;4046;48.774;8.732;2022-07-30T04:29:24;15.70;99.90
8002;DHT22;4046;48.774;8.732;2022-07-30T04:31:52;15.60;99.90
8002;DHT22;4046;48.774;8.732;2022-07-30T04:34:19;15.50;99.90
8002;DHT22;4046;48.774;8.732;2022-07-30T04:36:45;15.40;99.90
8002;DHT22;4046;48.774;8.732;2022-07-30T04:39:11;15.50;99.90
8002;DHT22;4046;48.774;8.732;2022-07-30T04:41:37;15.30;99.90
8002;DHT22;4046;48.774;8.732;2022-07-30T04:44:03;15.20;99.90
8002;DHT22;4046;48.774;8.732;2022-07-30T04:46:29;15.20;99.90
8002;DHT22;4046;48.774;8.732;2022-07-30T04:48:54;15.30;99.90
8002;DHT22;4046;48.774;8.732;2022-07-30T04:51:25;15.30;99.90
8002;DHT22;4046;48.774;8.732;2022-07-30T04:53:52;15.50;99.90
8002;DHT22;4046;48.774;8.732;2022-07-30T04:56:20;15.70;99.90
8002;DHT22;4046;48.774;8.732;2022-07-30T04:58:47;15.90;99.90
8002;DHT22;4046;48.774;8.732;2022-07-30T05:01:26;16.10;99.90
8002;DHT22;4046;48.774;8.732;2022-07-30T05:03:52;16.20;99.90
8002;DHT22;4046;48.774;8.732;2022-07-30T05:06:19;16.20;99.90
8002;DHT22;4046;48.774;8.732;2022-07-30T05:08:46;16.30;99.90
8002;DHT22;4046;48.774;8.732;2022-07-30T05:11:13;16.20;99.90
8002;DHT22;4046;48.774;8.732;2022-07-30T05:13:42;16.10;99.90
8002;DHT22;4046;48.774;8.732;2022-07-30T05:16:09;15.80;99.90
8002;DHT22;4046;48.774;8.732;2022-07-30T05:18:36;15.80;99.90
8002;DHT22;4046;48.774;8.732;2022-07-30T05:21:02;16.00;99.90
8002;DHT22;4046;48.774;8.732;2022-07-30T05:23:28;15.80;99.90
8002;DHT22;4046;48.774;8.732;2022-07-30T05:25:54;15.70;99.90
8002;DHT22;4046;48.774;8.732;2022-07-30T05:28:20;15.50;99.90
8002;DHT22;4046;48.774;8.732;2022-07-30T05:30:47;15.60;99.90
8002;DHT22;4046;48.774;8.732;2022-07-30T05:33:13;15.80;99.90
8002;DHT22;4046;48.774;8.732;2022-07-30T05:35:38;15.90;99.90
8002;DHT22;4046;48.774;8.732;2022-07-30T05:38:04;15.80;99.90
8002;DHT22;4046;48.774;8.732;2022-07-30T05:40:30;15.80;99.90
8002;DHT22;4046;48.774;8.732;2022-07-30T05:42:56;16.00;99.90
8002;DHT22;4046;48.774;8.732;2022-07-30T05:45:22;16.00;99.90
8002;DHT22;4046;48.774;8.732;2022-07-30T05:47:47;16.10;99.90
8002;DHT22;4046;48.774;8.732;2022-07-30T05:50:13;16.30;99.90
8002;DHT22;4046;48.774;8.732;2022-07-30T05:52:39;16.50;99.90
8002;DHT22;4046;48.774;8.732;2022-07-30T05:55:05;16.50;99.90
8002;DHT22;4046;48.774;8.732;2022-07-30T05:57:34;16.30;99.90
8002;DHT22;4046;48.774;8.732;2022-07-30T06:00:01;16.30;99.90
8002;DHT22;4046;48.774;8.732;2022-07-30T06:02:27;16.40;99.90
8002;DHT22;4046;48.774;8.732;2022-07-30T06:04:53;16.80;99.90
8002;DHT22;4046;48.774;8.732;2022-07-30T06:07:19;17.90;99.90
8002;DHT22;4046;48.774;8.732;2022-07-30T06:09:45;17.00;99.90
8002;DHT22;4046;48.774;8.732;2022-07-30T06:12:11;17.00;99.90
8002;DHT22;4046;48.774;8.732;2022-07-30T06:14:36;17.30;99.90
8002;DHT22;4046;48.774;8.732;2022-07-30T06:17:02;17.60;99.90
8002;DHT22;4046;48.774;8.732;2022-07-30T06:19:28;17.80;99.90
8002;DHT22;4046;48.774;8.732;2022-07-30T06:21:54;18.10;99.90
8002;DHT22;4046;48.774;8.732;2022-07-30T06:24:19;18.10;99.90
8002;DHT22;4046;48.774;8.732;2022-07-30T06:26:45;18.40;99.90
8002;DHT22;4046;48.774;8.732;2022-07-30T06:29:11;18.40;99.90
8002;DHT22;4046;48.774;8.732;2022-07-30T06:31:36;18.70;99.90
8002;DHT22;4046;48.774;8.732;2022-07-30T06:34:04;18.90;99.90
8002;DHT22;4046;48.774;8.732;2022-07-30T06:36:30;19.00;99.90
8002;DHT22;4046;48.774;8.732;2022-07-30T06:38:56;19.00;99.90
8002;DHT22;4046;48.774;8.732;2022-07-30T06:41:22;19.10;99.90
8002;DHT22;4046;48.774;8.732;2022-07-30T06:43:47;19.30;99.90
8002;DHT22;4046;48.774;8.732;2022-07-30T06:46:13;19.50;99.90
8002;DHT22;4046;48.774;8.732;2022-07-30T06:48:39;19.70;99.90
8002;DHT22;4046;48.774;8.732;2022-07-30T06:51:07;19.90;99.90
8002;DHT22;4046;48.774;8.732;2022-07-30T06:53:33;20.00;99.90
8002;DHT22;4046;48.774;8.732;2022-07-30T06:55:58;20.30;99.90
8002;DHT22;4046;48.774;8.732;2022-07-30T06:58:24;20.20;99.90
8002;DHT22;4046;48.774;8.732;2022-07-30T07:00:50;20.30;99.90
8002;DHT22;4046;48.774;8.732;2022-07-30T07:03:16;20.50;99.90
8002;DHT22;4046;48.774;8.732;2022-07-30T07:05:41;20.70;99.90
8002;DHT22;4046;48.774;8.732;2022-07-30T07:08:07;20.90;99.90
8002;DHT22;4046;48.774;8.732;2022-07-30T07:10:33;21.10;99.90
8002;DHT22;4046;48.774;8.732;2022-07-30T07:12:59;21.20;99.90
8002;DHT22;4046;48.774;8.732;2022-07-30T07:15:25;21.20;99.90
8002;DHT22;4046;48.774;8.732;2022-07-30T07:17:52;21.50;99.90
8002;DHT22;4046;48.774;8.732;2022-07-30T07:20:17;21.10;99.90
8002;DHT22;4046;48.774;8.732;2022-07-30T07:22:43;21.90;99.90
8002;DHT22;4046;48.774;8.732;2022-07-30T07:25:09;21.90;99.90
8002;DHT22;4046;48.774;8.732;2022-07-30T07:27:36;22.00;99.90
8002;DHT22;4046;48.774;8.732;2022-07-30T07:30:03;22.20;99.90
8002;DHT22;4046;48.774;8.732;2022-07-30T07:32:29;22.40;99.90
8002;DHT22;4046;48.774;8.732;2022-07-30T07:34:55;22.60;99.90
8002;DHT22;4046;48.774;8.732;2022-07-30T07:37:20;22.80;99.90
8002;DHT22;4046;48.774;8.732;2022-07-30T07:39:46;22.70;99.90
8002;DHT22;4046;48.774;8.732;2022-07-30T07:42:12;22.90;99.90
8002;DHT22;4046;48.774;8.732;2022-07-30T07:44:38;23.10;99.90
8002;DHT22;4046;48.774;8.732;2022-07-30T07:47:03;23.40;99.90
8002;DHT22;4046;48.774;8.732;2022-07-30T07:49:29;23.70;99.90
8002;DHT22;4046;48.774;8.732;2022-07-30T07:51:55;23.90;99.90
8002;DHT22;4046;48.774;8.732;2022-07-30T07:54:21;24.00;99.90
8002;DHT22;4046;48.774;8.732;2022-07-30T07:56:46;24.20;99.90
8002;DHT22;4046;48.774;8.732;2022-07-30T07:59:13;24.30;99.90
8002;DHT22;4046;48.774;8.732;2022-07-30T08:01:39;24.50;99.90
8002;DHT22;4046;48.774;8.732;2022-07-30T08:04:07;24.50;99.90
8002;DHT22;4046;48.774;8.732;2022-07-30T08:06:32;24.00;99.90
8002;DHT22;4046;48.774;8.732;2022-07-30T08:08:58;23.60;99.90
8002;DHT22;4046;48.774;8.732;2022-07-30T08:11:27;23.40;99.90
8002;DHT22;4046;48.774;8.732;2022-07-30T08:13:53;23.40;99.90
8002;DHT22;4046;48.774;8.732;2022-07-30T08:16:19;23.60;99.90
8002;DHT22;4046;48.774;8.732;2022-07-30T08:18:44;23.80;99.90
8002;DHT22;4046;48.774;8.732;2022-07-30T08:21:10;24.00;99.90
8002;DHT22;4046;48.774;8.732;2022-07-30T08:23:36;24.30;99.90
8002;DHT22;4046;48.774;8.732;2022-07-30T08:26:02;24.40;99.90
8002;DHT22;4046;48.774;8.732;2022-07-30T08:28:29;24.50;99.90
8002;DHT22;4046;48.774;8.732;2022-07-30T08:30:55;24.70;99.90
8002;DHT22;4046;48.774;8.732;2022-07-30T08:33:20;24.80;99.90
8002;DHT22;4046;48.774;8.732;2022-07-30T08:35:46;24.90;99.90
8002;DHT22;4046;48.774;8.732;2022-07-30T08:38:12;24.70;99.90
8002;DHT22;4046;48.774;8.732;2022-07-30T08:40:38;24.70;99.90
8002;DHT22;4046;48.774;8.732;2022-07-30T08:43:05;24.70;99.90
8002;DHT22;4046;48.774;8.732;2022-07-30T08:45:32;24.60;99.90
8002;DHT22;4046;48.774;8.732;2022-07-30T08:48:06;24.80;99.90
8002;DHT22;4046;48.774;8.732;2022-07-30T08:50:33;24.90;99.90
8002;DHT22;4046;48.774;8.732;2022-07-30T08:53:00;25.20;99.90
8002;DHT22;4046;48.774;8.732;2022-07-30T08:55:26;25.50;99.90
8002;DHT22;4046;48.774;8.732;2022-07-30T08:57:52;25.70;99.90
8002;DHT22;4046;48.774;8.732;2022-07-30T09:00:18;25.90;99.90
8002;DHT22;4046;48.774;8.732;2022-07-30T09:02:44;25.80;99.90
8002;DHT22;4046;48.774;8.732;2022-07-30T09:05:11;26.00;99.90
8002;DHT22;4046;48.774;8.732;2022-07-30T09:07:37;26.10;99.90
8002;DHT22;4046;48.774;8.732;2022-07-30T09:10:08;25.80;99.90
8002;DHT22;4046;48.774;8.732;2022-07-30T09:12:41;25.70;99.90
8002;DHT22;4046;48.774;8.732;2022-07-30T09:15:16;25.80;99.90
8002;DHT22;4046;48.774;8.732;2022-07-30T09:18:03;25.90;99.90
8002;DHT22;4046;48.774;8.732;2022-07-30T09:20:33;26.10;99.90
8002;DHT22;4046;48.774;8.732;2022-07-30T09:23:02;26.80;99.90
8002;DHT22;4046;48.774;8.732;2022-07-30T09:25:39;27.10;99.90
8002;DHT22;4046;48.774;8.732;2022-07-30T09:28:06;27.40;99.90
8002;DHT22;4046;48.774;8.732;2022-07-30T09:30:48;28.30;99.90
8002;DHT22;4046;48.774;8.732;2022-07-30T09:36:03;29.10;99.90
8002;DHT22;4046;48.774;8.732;2022-07-30T09:38:45;29.10;99.90
8002;DHT22;4046;48.774;8.732;2022-07-30T09:41:13;29.70;99.90
8002;DHT22;4046;48.774;8.732;2022-07-30T09:43:44;29.90;99.90
8002;DHT22;4046;48.774;8.732;2022-07-30T09:46:10;30.30;99.90
8002;DHT22;4046;48.774;8.732;2022-07-30T09:48:36;30.60;99.90
8002;DHT22;4046;48.774;8.732;2022-07-30T09:51:02;30.90;99.90
8002;DHT22;4046;48.774;8.732;2022-07-30T09:53:28;30.90;99.90
8002;DHT22;4046;48.774;8.732;2022-07-30T09:55:54;30.30;99.90
8002;DHT22;4046;48.774;8.732;2022-07-30T09:58:20;30.60;99.90
8002;DHT22;4046;48.774;8.732;2022-07-30T10:00:46;30.70;99.90
8002;DHT22;4046;48.774;8.732;2022-07-30T10:03:23;31.10;99.90
8002;DHT22;4046;48.774;8.732;2022-07-30T10:05:51;31.20;99.90
8002;DHT22;4046;48.774;8.732;2022-07-30T10:08:17;31.70;99.90
8002;DHT22;4046;48.774;8.732;2022-07-30T10:10:43;31.60;99.90
8002;DHT22;4046;48.774;8.732;2022-07-30T10:13:10;32.10;99.90
8002;DHT22;4046;48.774;8.732;2022-07-30T10:15:38;32.40;99.90
8002;DHT22;4046;48.774;8.732;2022-07-30T10:18:04;32.90;99.90
8002;DHT22;4046;48.774;8.732;2022-07-30T10:20:29;32.80;99.90
8002;DHT22;4046;48.774;8.732;2022-07-30T10:22:56;30.70;99.90
8002;DHT22;4046;48.774;8.732;2022-07-30T10:25:24;31.00;99.90
8002;DHT22;4046;48.774;8.732;2022-07-30T10:27:51;30.80;99.90
8002;DHT22;4046;48.774;8.732;2022-07-30T10:30:17;30.30;99.90
8002;DHT22;4046;48.774;8.732;2022-07-30T10:32:44;30.10;99.90
8002;DHT22;4046;48.774;8.732;2022-07-30T10:35:11;30.80;99.90
8002;DHT22;4046;48.774;8.732;2022-07-30T10:37:41;31.40;99.90
8002;DHT22;4046;48.774;8.732;2022-07-30T10:43:05;32.80;99.90
8002;DHT22;4046;48.774;8.732;2022-07-30T10:46:01;33.30;99.90
8002;DHT22;4046;48.774;8.732;2022-07-30T10:48:32;33.30;99.90
8002;DHT22;4046;48.774;8.732;2022-07-30T10:50:58;33.30;99.90
8002;DHT22;4046;48.774;8.732;2022-07-30T10:53:38;33.00;99.90
8002;DHT22;4046;48.774;8.732;2022-07-30T10:56:17;32.60;99.90
8002;DHT22;4046;48.774;8.732;2022-07-30T11:01:22;32.60;99.90
8002;DHT22;4046;48.774;8.732;2022-07-30T11:04:26;32.20;99.90
8002;DHT22;4046;48.774;8.732;2022-07-30T11:07:25;32.10;99.90
8002;DHT22;4046;48.774;8.732;2022-07-30T11:09:59;32.50;99.90
8002;DHT22;4046;48.774;8.732;2022-07-30T11:15:11;32.00;99.90
8002;DHT22;4046;48.774;8.732;2022-07-30T11:17:59;32.20;99.90
8002;DHT22;4046;48.774;8.732;2022-07-30T11:20:29;31.90;99.90
8002;DHT22;4046;48.774;8.732;2022-07-30T11:23:12;31.50;99.90
8002;DHT22;4046;48.774;8.732;2022-07-30T11:25:56;31.90;99.90
8002;DHT22;4046;48.774;8.732;2022-07-30T11:31:25;32.80;99.90
8002;DHT22;4046;48.774;8.732;2022-07-30T11:33:50;32.60;99.90
8002;DHT22;4046;48.774;8.732;2022-07-30T11:36:17;33.10;99.90
8002;DHT22;4046;48.774;8.732;2022-07-30T11:41:15;33.70;99.90
8002;DHT22;4046;48.774;8.732;2022-07-30T11:43:41;33.20;99.90
8002;DHT22;4046;48.774;8.732;2022-07-30T11:46:12;33.20;99.90
8002;DHT22;4046;48.774;8.732;2022-07-30T11:49:00;33.70;99.90
8002;DHT22;4046;48.774;8.732;2022-07-30T11:51:39;34.20;99.90
8002;DHT22;4046;48.774;8.732;2022-07-30T11:54:09;34.50;99.90
8002;DHT22;4046;48.774;8.732;2022-07-30T11:56:41;34.20;99.90
8002;DHT22;4046;48.774;8.732;2022-07-30T11:59:14;34.10;99.90
8002;DHT22;4046;48.774;8.732;2022-07-30T12:01:40;34.10;99.90
8002;DHT22;4046;48.774;8.732;2022-07-30T12:04:07;33.30;99.90
8002;DHT22;4046;48.774;8.732;2022-07-30T12:06:45;33.60;99.90
8002;DHT22;4046;48.774;8.732;2022-07-30T12:09:11;33.80;99.90
8002;DHT22;4046;48.774;8.732;2022-07-30T12:11:37;33.60;99.90
8002;DHT22;4046;48.774;8.732;2022-07-30T12:14:03;33.40;99.90
8002;DHT22;4046;48.774;8.732;2022-07-30T12:16:31;32.90;99.90
8002;DHT22;4046;48.774;8.732;2022-07-30T12:19:06;32.70;99.90
8002;DHT22;4046;48.774;8.732;2022-07-30T12:21:32;32.50;99.90
8002;DHT22;4046;48.774;8.732;2022-07-30T12:24:01;32.90;99.90
8002;DHT22;4046;48.774;8.732;2022-07-30T12:26:32;33.40;99.90
8002;DHT22;4046;48.774;8.732;2022-07-30T12:29:02;32.60;99.90
8002;DHT22;4046;48.774;8.732;2022-07-30T12:31:29;31.90;99.90
8002;DHT22;4046;48.774;8.732;2022-07-30T12:33:55;31.30;99.90
8002;DHT22;4046;48.774;8.732;2022-07-30T12:36:26;30.70;99.90
8002;DHT22;4046;48.774;8.732;2022-07-30T12:38:52;30.90;99.90
8002;DHT22;4046;48.774;8.732;2022-07-30T12:41:19;31.30;99.90
8002;DHT22;4046;48.774;8.732;2022-07-30T12:43:48;31.50;99.90
8002;DHT22;4046;48.774;8.732;2022-07-30T12:46:37;31.50;99.90
8002;DHT22;4046;48.774;8.732;2022-07-30T12:49:05;31.40;99.90
8002;DHT22;4046;48.774;8.732;2022-07-30T12:51:33;31.50;99.90
8002;DHT22;4046;48.774;8.732;2022-07-30T12:54:01;30.80;99.90
8002;DHT22;4046;48.774;8.732;2022-07-30T12:56:38;30.10;99.90
8002;DHT22;4046;48.774;8.732;2022-07-30T12:59:04;29.90;99.90
8002;DHT22;4046;48.774;8.732;2022-07-30T13:01:45;29.90;99.90
8002;DHT22;4046;48.774;8.732;2022-07-30T13:04:12;30.00;99.90
8002;DHT22;4046;48.774;8.732;2022-07-30T13:06:38;30.10;99.90
8002;DHT22;4046;48.774;8.732;2022-07-30T13:09:20;30.10;99.90
8002;DHT22;4046;48.774;8.732;2022-07-30T13:11:47;30.30;99.90
8002;DHT22;4046;48.774;8.732;2022-07-30T13:14:13;29.90;99.90
8002;DHT22;4046;48.774;8.732;2022-07-30T13:16:41;29.90;99.90
8002;DHT22;4046;48.774;8.732;2022-07-30T13:19:08;30.10;99.90
8002;DHT22;4046;48.774;8.732;2022-07-30T13:21:36;29.80;99.90
8002;DHT22;4046;48.774;8.732;2022-07-30T13:24:02;29.40;99.90
8002;DHT22;4046;48.774;8.732;2022-07-30T13:26:28;29.50;99.90
8002;DHT22;4046;48.774;8.732;2022-07-30T13:28:55;29.40;99.90
8002;DHT22;4046;48.774;8.732;2022-07-30T13:31:21;30.10;99.90
8002;DHT22;4046;48.774;8.732;2022-07-30T13:33:47;30.90;99.90
8002;DHT22;4046;48.774;8.732;2022-07-30T13:36:15;31.70;99.90
8002;DHT22;4046;48.774;8.732;2022-07-30T13:38:42;31.90;99.90
8002;DHT22;4046;48.774;8.732;2022-07-30T13:41:08;31.40;99.90
8002;DHT22;4046;48.774;8.732;2022-07-30T13:43:34;31.70;99.90
8002;DHT22;4046;48.774;8.732;2022-07-30T13:46:01;31.30;99.90
8002;DHT22;4046;48.774;8.732;2022-07-30T13:48:27;30.80;99.90
8002;DHT22;4046;48.774;8.732;2022-07-30T13:50:53;30.30;99.90
8002;DHT22;4046;48.774;8.732;2022-07-30T13:53:19;30.40;99.90
8002;DHT22;4046;48.774;8.732;2022-07-30T13:55:45;30.10;99.90
8002;DHT22;4046;48.774;8.732;2022-07-30T13:58:11;30.00;99.90
8002;DHT22;4046;48.774;8.732;2022-07-30T14:00:37;29.80;99.90
8002;DHT22;4046;48.774;8.732;2022-07-30T14:03:08;29.50;99.90
8002;DHT22;4046;48.774;8.732;2022-07-30T14:05:36;29.50;99.90
8002;DHT22;4046;48.774;8.732;2022-07-30T14:08:03;29.40;99.90
8002;DHT22;4046;48.774;8.732;2022-07-30T14:10:29;29.60;99.90
8002;DHT22;4046;48.774;8.732;2022-07-30T14:12:56;30.00;99.90
8002;DHT22;4046;48.774;8.732;2022-07-30T14:15:27;30.40;99.90
8002;DHT22;4046;48.774;8.732;2022-07-30T14:17:53;30.40;99.90
8002;DHT22;4046;48.774;8.732;2022-07-30T14:20:19;30.60;99.90
8002;DHT22;4046;48.774;8.732;2022-07-30T14:22:45;30.40;99.90
8002;DHT22;4046;48.774;8.732;2022-07-30T14:25:11;29.90;99.90
8002;DHT22;4046;48.774;8.732;2022-07-30T14:27:37;29.30;99.90
8002;DHT22;4046;48.774;8.732;2022-07-30T14:30:06;29.00;99.90
8002;DHT22;4046;48.774;8.732;2022-07-30T14:32:32;28.70;99.90
8002;DHT22;4046;48.774;8.732;2022-07-30T14:34:58;28.80;99.90
8002;DHT22;4046;48.774;8.732;2022-07-30T14:37:23;29.00;99.90
8002;DHT22;4046;48.774;8.732;2022-07-30T14:39:49;29.80;99.90
8002;DHT22;4046;48.774;8.732;2022-07-30T14:42:15;29.70;99.90
8002;DHT22;4046;48.774;8.732;2022-07-30T14:44:41;29.90;99.90
8002;DHT22;4046;48.774;8.732;2022-07-30T14:47:08;29.90;99.90
8002;DHT22;4046;48.774;8.732;2022-07-30T14:49:34;29.90;99.90
8002;DHT22;4046;48.774;8.732;2022-07-30T14:52:00;29.50;99.90
8002;DHT22;4046;48.774;8.732;2022-07-30T14:54:26;29.50;99.90
8002;DHT22;4046;48.774;8.732;2022-07-30T14:56:52;29.70;99.90
8002;DHT22;4046;48.774;8.732;2022-07-30T14:59:18;29.80;99.90
8002;DHT22;4046;48.774;8.732;2022-07-30T15:01:44;29.90;99.90
8002;DHT22;4046;48.774;8.732;2022-07-30T15:04:13;30.00;99.90
8002;DHT22;4046;48.774;8.732;2022-07-30T15:06:39;30.00;99.90
8002;DHT22;4046;48.774;8.732;2022-07-30T15:09:08;29.90;99.90
8002;DHT22;4046;48.774;8.732;2022-07-30T15:11:34;29.70;99.90
8002;DHT22;4046;48.774;8.732;2022-07-30T15:14:00;29.70;99.90
8002;DHT22;4046;48.774;8.732;2022-07-30T15:16:26;29.50;99.90
8002;DHT22;4046;48.774;8.732;2022-07-30T15:18:52;29.70;99.90
8002;DHT22;4046;48.774;8.732;2022-07-30T15:21:18;29.90;99.90
8002;DHT22;4046;48.774;8.732;2022-07-30T15:23:44;29.90;99.90
8002;DHT22;4046;48.774;8.732;2022-07-30T15:26:10;28.80;99.90
8002;DHT22;4046;48.774;8.732;2022-07-30T15:28:36;28.40;99.90
8002;DHT22;4046;48.774;8.732;2022-07-30T15:31:01;28.60;99.90
8002;DHT22;4046;48.774;8.732;2022-07-30T15:33:28;28.70;99.90
8002;DHT22;4046;48.774;8.732;2022-07-30T15:35:53;28.80;99.90
8002;DHT22;4046;48.774;8.732;2022-07-30T15:38:19;29.00;99.90
8002;DHT22;4046;48.774;8.732;2022-07-30T15:40:45;28.70;99.90
8002;DHT22;4046;48.774;8.732;2022-07-30T15:43:11;28.50;99.90
8002;DHT22;4046;48.774;8.732;2022-07-30T15:45:36;28.60;99.90
8002;DHT22;4046;48.774;8.732;2022-07-30T15:48:03;28.90;99.90
8002;DHT22;4046;48.774;8.732;2022-07-30T15:50:28;29.00;99.90
8002;DHT22;4046;48.774;8.732;2022-07-30T15:52:54;29.10;99.90
8002;DHT22;4046;48.774;8.732;2022-07-30T15:55:22;29.30;99.90
8002;DHT22;4046;48.774;8.732;2022-07-30T15:57:48;29.30;99.90
8002;DHT22;4046;48.774;8.732;2022-07-30T16:00:14;29.30;99.90
8002;DHT22;4046;48.774;8.732;2022-07-30T16:02:40;29.70;99.90
8002;DHT22;4046;48.774;8.732;2022-07-30T16:05:07;29.80;99.90
8002;DHT22;4046;48.774;8.732;2022-07-30T16:07:33;29.60;99.90
8002;DHT22;4046;48.774;8.732;2022-07-30T16:09:59;29.80;99.90
8002;DHT22;4046;48.774;8.732;2022-07-30T16:12:25;29.90;99.90
8002;DHT22;4046;48.774;8.732;2022-07-30T16:14:51;30.10;99.90
8002;DHT22;4046;48.774;8.732;2022-07-30T16:17:17;30.10;99.90
8002;DHT22;4046;48.774;8.732;2022-07-30T16:19:43;30.10;99.90
8002;DHT22;4046;48.774;8.732;2022-07-30T16:22:11;30.10;99.90
8002;DHT22;4046;48.774;8.732;2022-07-30T16:24:37;30.10;99.90